logo
Rechercher aéroport 
image banner adimage banner adimage banner ad
image banner ad

OEAH - Al Ahsa

Situé à Al Ahsa, Saudi Arabia

ICAO - OEAH, IATA - HOF

Données fournies par Airmate  

Information générale

Coordonnées: N25°17'10" E49°29'10"
Élévation : 588 feet MSL.
 
Voir autres Aéroports à Ash Sharqiyah

Données opérationnelles

Special qualification required
Heure actuelle UTC:
Heure actuelle locale:
Météo
METAR: OEAH 251500Z 32014KT CAVOK 44/04 Q0993 NOSIG
TAF: TAF OEAH 251000Z 2512/2618 35016KT CAVOK BECMG 2518/2520 VRB03KT BECMG 2604/2606 34012KT
Voir NOTAMs / SUP AIP / TFR affectant cet aéroport [VIEW]
Fréquences de communication: [VIEW]

Pistes:

Identifiant RWYQFULongueur (ft)Largeur (ft)SurfaceLDA (ft)
16165°10039148ASP
34345°10039148ASP

Coordonnées de l'aéroport

Adresse: Al Ahsa Saudi Arabia

Vue satellite de OEAH